SAS596 BIKF-EKCH
Flight info
| Callsign | SAS596 |
|---|---|
| Flight time | 2h 31m |
| Altitude | 35000 |
| Route | OSKUM DCT 63N010W DCT GUNPA/N0447F350 DCT RASVI DCT TESPI |
| Aircraft | A320/M-SDE3FGHIRWY/LB1 |
Departure
| Time | 2026-05-04 15:50 |
|---|---|
| Airport | Keflavik International Airport (BIKF) |
Arrival
| Time | 2026-05-04 18:22 |
|---|---|
| Airport | Copenhagen Kastrup Airport (EKCH) |
| Time | Latitude | Longitude | Altitude | Speed | Heading |
|---|---|---|---|---|---|
| 2026-05-04 15:34 | 63.99281 | -22.62452 | 141 ft | 0 kts | 360° |
| 2026-05-04 15:42 | 63.99276 | -22.62452 | 141 ft | 4 kts | 360° |
| 2026-05-04 15:43 | 63.99250 | -22.62451 | 141 ft | 3 kts | 359° |
| 2026-05-04 15:43 | 63.99226 | -22.62449 | 141 ft | 3 kts | 355° |
| 2026-05-04 15:43 | 63.99201 | -22.62443 | 141 ft | 3 kts | 347° |
| 2026-05-04 15:43 | 63.99187 | -22.62434 | 141 ft | 2 kts | 329° |
| 2026-05-04 15:44 | 63.99177 | -22.62418 | 141 ft | 2 kts | 295° |
| 2026-05-04 15:44 | 63.99173 | -22.62394 | 141 ft | 2 kts | 274° |
| 2026-05-04 15:44 | 63.99172 | -22.62369 | 141 ft | 2 kts | 269° |
| 2026-05-04 15:44 | 63.99173 | -22.62358 | 140 ft | 0 kts | 269° |
| 2026-05-04 15:45 | 63.99172 | -22.62376 | 140 ft | 3 kts | 269° |
| 2026-05-04 15:46 | 63.99173 | -22.62485 | 140 ft | 11 kts | 271° |
| 2026-05-04 15:46 | 63.99165 | -22.62668 | 140 ft | 12 kts | 234° |
| 2026-05-04 15:46 | 63.99071 | -22.62749 | 139 ft | 17 kts | 197° |
| 2026-05-04 15:46 | 63.98944 | -22.62837 | 137 ft | 19 kts | 197° |
| 2026-05-04 15:47 | 63.98855 | -22.62967 | 135 ft | 17 kts | 258° |
| 2026-05-04 15:47 | 63.98854 | -22.63271 | 133 ft | 22 kts | 270° |
| 2026-05-04 15:47 | 63.98855 | -22.63687 | 125 ft | 30 kts | 270° |
| 2026-05-04 15:47 | 63.98854 | -22.64170 | 126 ft | 31 kts | 269° |
| 2026-05-04 15:48 | 63.98855 | -22.64689 | 120 ft | 33 kts | 270° |
| 2026-05-04 15:48 | 63.98854 | -22.65086 | 114 ft | 23 kts | 270° |
| 2026-05-04 15:48 | 63.98759 | -22.65466 | 118 ft | 15 kts | 180° |
| 2026-05-04 15:49 | 63.98645 | -22.65465 | 116 ft | 17 kts | 180° |
| 2026-05-04 15:49 | 63.98543 | -22.65466 | 114 ft | 12 kts | 180° |
| 2026-05-04 15:49 | 63.98502 | -22.65369 | 120 ft | 9 kts | 88° |
| 2026-05-04 15:49 | 63.98503 | -22.65181 | 119 ft | 19 kts | 90° |
| 2026-05-04 15:50 | 63.98504 | -22.64371 | 127 ft | 89 kts | 90° |
| 2026-05-04 15:50 | 63.98504 | -22.62462 | 145 ft | 150 kts | 90° |
| 2026-05-04 15:50 | 63.98510 | -22.59984 | 645 ft | 160 kts | 85° |
| 2026-05-04 15:50 | 63.98507 | -22.57441 | 1463 ft | 161 kts | 85° |
| 2026-05-04 15:51 | 63.98505 | -22.54755 | 1778 ft | 180 kts | 85° |
| 2026-05-04 15:51 | 63.98506 | -22.51726 | 2031 ft | 202 kts | 86° |
| 2026-05-04 15:51 | 63.98506 | -22.48325 | 2302 ft | 226 kts | 86° |
| 2026-05-04 15:51 | 63.98504 | -22.44559 | 2738 ft | 247 kts | 88° |
| 2026-05-04 15:52 | 63.98156 | -22.40515 | 3129 ft | 276 kts | 107° |
| 2026-05-04 15:52 | 63.97464 | -22.36233 | 3486 ft | 300 kts | 108° |
| 2026-05-04 15:52 | 63.96700 | -22.31602 | 3776 ft | 323 kts | 108° |
| 2026-05-04 15:52 | 63.95890 | -22.26740 | 4359 ft | 332 kts | 108° |
| 2026-05-04 15:53 | 63.95078 | -22.21856 | 5101 ft | 336 kts | 108° |
| 2026-05-04 15:53 | 63.94248 | -22.16843 | 5823 ft | 340 kts | 109° |
| 2026-05-04 15:53 | 63.93406 | -22.11745 | 6513 ft | 346 kts | 109° |
| 2026-05-04 15:53 | 63.92553 | -22.06575 | 7169 ft | 351 kts | 109° |
| 2026-05-04 15:54 | 63.91691 | -22.01329 | 7814 ft | 357 kts | 109° |
| 2026-05-04 15:54 | 63.90811 | -21.96002 | 8454 ft | 362 kts | 109° |
| 2026-05-04 15:54 | 63.89926 | -21.90672 | 9069 ft | 368 kts | 109° |
| 2026-05-04 15:54 | 63.89011 | -21.85180 | 9682 ft | 375 kts | 109° |
| 2026-05-04 15:55 | 63.88083 | -21.79604 | 10273 ft | 380 kts | 109° |
| 2026-05-04 15:55 | 63.87138 | -21.73947 | 10788 ft | 387 kts | 109° |
| 2026-05-04 15:55 | 63.86175 | -21.68203 | 11277 ft | 393 kts | 109° |
| 2026-05-04 15:55 | 63.85188 | -21.62343 | 11805 ft | 400 kts | 109° |
| 2026-05-04 15:56 | 63.84251 | -21.56348 | 12294 ft | 406 kts | 103° |
| 2026-05-04 15:56 | 63.83554 | -21.50177 | 12792 ft | 412 kts | 102° |
| 2026-05-04 15:56 | 63.82843 | -21.43823 | 13291 ft | 419 kts | 102° |
| 2026-05-04 15:56 | 63.82118 | -21.37386 | 13785 ft | 425 kts | 102° |
| 2026-05-04 15:57 | 63.81375 | -21.30846 | 14237 ft | 432 kts | 102° |
| 2026-05-04 15:57 | 63.80617 | -21.24215 | 14693 ft | 437 kts | 102° |
| 2026-05-04 15:57 | 63.79847 | -21.17496 | 15168 ft | 443 kts | 102° |
| 2026-05-04 15:57 | 63.79067 | -21.10709 | 15637 ft | 447 kts | 102° |
| 2026-05-04 15:58 | 63.78286 | -21.03939 | 16110 ft | 452 kts | 102° |
| 2026-05-04 15:58 | 63.77483 | -20.97010 | 16611 ft | 457 kts | 102° |
| 2026-05-04 15:58 | 63.76668 | -20.90007 | 17115 ft | 462 kts | 102° |
| 2026-05-04 15:58 | 63.75847 | -20.82995 | 17606 ft | 467 kts | 102° |
| 2026-05-04 15:59 | 63.75009 | -20.75875 | 18091 ft | 471 kts | 102° |
| 2026-05-04 15:59 | 63.74160 | -20.68688 | 18561 ft | 476 kts | 102° |
| 2026-05-04 15:59 | 63.73296 | -20.61443 | 18976 ft | 480 kts | 102° |
| 2026-05-04 15:59 | 63.72415 | -20.54137 | 19418 ft | 484 kts | 103° |
| 2026-05-04 16:00 | 63.71558 | -20.46769 | 19880 ft | 485 kts | 99° |
| 2026-05-04 16:00 | 63.71062 | -20.39251 | 20344 ft | 484 kts | 90° |
| 2026-05-04 16:00 | 63.70833 | -20.31665 | 20773 ft | 486 kts | 89° |
| 2026-05-04 16:00 | 63.70598 | -20.24019 | 21175 ft | 489 kts | 90° |
| 2026-05-04 16:01 | 63.70354 | -20.16335 | 21559 ft | 493 kts | 90° |
| 2026-05-04 16:01 | 63.70105 | -20.08711 | 21891 ft | 497 kts | 90° |
| 2026-05-04 16:01 | 63.69845 | -20.00937 | 22202 ft | 500 kts | 90° |
| 2026-05-04 16:01 | 63.69577 | -19.93020 | 22544 ft | 504 kts | 90° |
| 2026-05-04 16:02 | 63.69304 | -19.85099 | 22878 ft | 507 kts | 90° |
| 2026-05-04 16:02 | 63.69027 | -19.77230 | 23218 ft | 510 kts | 90° |
| 2026-05-04 16:02 | 63.68449 | -19.61206 | 23831 ft | 516 kts | 90° |
| 2026-05-04 16:03 | 63.68152 | -19.53132 | 24100 ft | 519 kts | 90° |
| 2026-05-04 16:03 | 63.67853 | -19.45017 | 24356 ft | 521 kts | 90° |
| 2026-05-04 16:03 | 63.67548 | -19.36854 | 24637 ft | 524 kts | 91° |
| 2026-05-04 16:03 | 63.67233 | -19.28657 | 24917 ft | 526 kts | 91° |
| 2026-05-04 16:04 | 63.66909 | -19.20411 | 25194 ft | 529 kts | 91° |
| 2026-05-04 16:04 | 63.66245 | -19.03902 | 25712 ft | 533 kts | 91° |
| 2026-05-04 16:04 | 63.65904 | -18.95569 | 25956 ft | 535 kts | 91° |
| 2026-05-04 16:05 | 63.65561 | -18.87258 | 26199 ft | 537 kts | 91° |
| 2026-05-04 16:05 | 63.65209 | -18.78869 | 26463 ft | 538 kts | 91° |
| 2026-05-04 16:05 | 63.64490 | -18.62112 | 27166 ft | 537 kts | 91° |
| 2026-05-04 16:06 | 63.64123 | -18.53755 | 27530 ft | 537 kts | 91° |
| 2026-05-04 16:06 | 63.63126 | -18.31507 | 28510 ft | 536 kts | 92° |
| 2026-05-04 16:07 | 63.62623 | -18.20478 | 29009 ft | 535 kts | 92° |
| 2026-05-04 16:07 | 63.61439 | -17.95520 | 30140 ft | 535 kts | 92° |
| 2026-05-04 16:08 | 63.61037 | -17.87210 | 30477 ft | 535 kts | 92° |
| 2026-05-04 16:08 | 63.59801 | -17.62337 | 31505 ft | 532 kts | 92° |
| 2026-05-04 16:09 | 63.58953 | -17.45797 | 32207 ft | 531 kts | 92° |
| 2026-05-04 16:09 | 63.58095 | -17.29424 | 32919 ft | 529 kts | 93° |
| 2026-05-04 16:10 | 63.57226 | -17.13036 | 33645 ft | 527 kts | 93° |
| 2026-05-04 16:11 | 63.55897 | -16.88682 | 34645 ft | 524 kts | 94° |
| 2026-05-04 16:11 | 63.55441 | -16.80574 | 34944 ft | 523 kts | 94° |
| 2026-05-04 16:12 | 63.54041 | -16.56087 | 35175 ft | 532 kts | 94° |
| 2026-05-04 16:12 | 63.52583 | -16.31501 | 35172 ft | 533 kts | 95° |
| 2026-05-04 16:13 | 63.50573 | -15.98576 | 35170 ft | 533 kts | 95° |
| 2026-05-04 16:14 | 63.48479 | -15.65680 | 35176 ft | 534 kts | 95° |
| 2026-05-04 16:16 | 63.45766 | -15.24572 | 35175 ft | 534 kts | 96° |
| 2026-05-04 16:17 | 63.42926 | -14.83504 | 35179 ft | 534 kts | 96° |
| 2026-05-04 16:18 | 63.40574 | -14.50860 | 35175 ft | 535 kts | 96° |
| 2026-05-04 16:19 | 63.37547 | -14.10059 | 35150 ft | 526 kts | 97° |
| 2026-05-04 16:20 | 63.34445 | -13.70093 | 35144 ft | 523 kts | 97° |
| 2026-05-04 16:22 | 63.31448 | -13.32897 | 35144 ft | 524 kts | 98° |
| 2026-05-04 16:23 | 63.27456 | -12.85201 | 35144 ft | 524 kts | 98° |
| 2026-05-04 16:25 | 63.23302 | -12.37532 | 35134 ft | 525 kts | 99° |
| 2026-05-04 16:26 | 63.18236 | -11.81957 | 35126 ft | 525 kts | 100° |
| 2026-05-04 16:28 | 63.14502 | -11.42380 | 35128 ft | 525 kts | 100° |
| 2026-05-04 16:29 | 63.09071 | -10.87209 | 35118 ft | 525 kts | 101° |
| 2026-05-04 16:31 | 63.05065 | -10.47984 | 35111 ft | 525 kts | 101° |
| 2026-05-04 16:32 | 63.00104 | -10.01074 | 35105 ft | 525 kts | 104° |
| 2026-05-04 16:33 | 62.95478 | -9.70576 | 35100 ft | 525 kts | 108° |
| 2026-05-04 16:34 | 62.91922 | -9.47820 | 35096 ft | 525 kts | 109° |
| 2026-05-04 16:35 | 62.84708 | -9.02561 | 35091 ft | 525 kts | 109° |
| 2026-05-04 16:36 | 62.81044 | -8.80036 | 35087 ft | 524 kts | 109° |
| 2026-05-04 16:37 | 62.77364 | -8.57567 | 35084 ft | 523 kts | 110° |
| 2026-05-04 16:38 | 62.72403 | -8.27807 | 35081 ft | 522 kts | 110° |
| 2026-05-04 16:39 | 62.66106 | -7.90754 | 35073 ft | 522 kts | 110° |
| 2026-05-04 16:40 | 62.61016 | -7.61241 | 35068 ft | 521 kts | 111° |
| 2026-05-04 16:41 | 62.54561 | -7.24519 | 35066 ft | 520 kts | 111° |
| 2026-05-04 16:43 | 62.48031 | -6.88114 | 35062 ft | 519 kts | 112° |
| 2026-05-04 16:43 | 62.44075 | -6.66343 | 35061 ft | 518 kts | 112° |
| 2026-05-04 16:45 | 62.36074 | -6.23103 | 35052 ft | 517 kts | 113° |
| 2026-05-04 16:46 | 62.29321 | -5.87255 | 35052 ft | 516 kts | 114° |
| 2026-05-04 16:47 | 62.23848 | -5.58791 | 35045 ft | 515 kts | 114° |
| 2026-05-04 16:48 | 62.18353 | -5.30468 | 35043 ft | 515 kts | 114° |
| 2026-05-04 16:49 | 62.12789 | -5.02295 | 35045 ft | 514 kts | 115° |
| 2026-05-04 16:50 | 62.07175 | -4.74220 | 35044 ft | 514 kts | 115° |
| 2026-05-04 16:51 | 62.02932 | -4.53271 | 35047 ft | 513 kts | 115° |
| 2026-05-04 16:52 | 61.97229 | -4.25417 | 35046 ft | 513 kts | 116° |
| 2026-05-04 16:53 | 61.92927 | -4.04654 | 35046 ft | 513 kts | 116° |
| 2026-05-04 16:54 | 61.87130 | -3.77086 | 35044 ft | 512 kts | 116° |
| 2026-05-04 16:55 | 61.78379 | -3.35996 | 35039 ft | 510 kts | 117° |
| 2026-05-04 16:56 | 61.70986 | -3.01992 | 35042 ft | 509 kts | 117° |
| 2026-05-04 16:57 | 61.66530 | -2.81704 | 35039 ft | 509 kts | 117° |
| 2026-05-04 16:58 | 61.60549 | -2.54816 | 35040 ft | 507 kts | 118° |
| 2026-05-04 17:00 | 61.51496 | -2.14757 | 35034 ft | 506 kts | 118° |
| 2026-05-04 17:01 | 61.43892 | -1.81649 | 35042 ft | 503 kts | 119° |
| 2026-05-04 17:02 | 61.37779 | -1.55449 | 35030 ft | 502 kts | 119° |
| 2026-05-04 17:03 | 61.33187 | -1.35936 | 35030 ft | 501 kts | 120° |
| 2026-05-04 17:03 | 61.28549 | -1.16422 | 35032 ft | 499 kts | 120° |
| 2026-05-04 17:04 | 61.22374 | -0.90660 | 35028 ft | 498 kts | 120° |
| 2026-05-04 17:05 | 61.16147 | -0.65043 | 35024 ft | 497 kts | 120° |
| 2026-05-04 17:06 | 61.11451 | -0.45947 | 35021 ft | 496 kts | 121° |
| 2026-05-04 17:07 | 61.07788 | -0.31152 | 35020 ft | 496 kts | 121° |
| 2026-05-04 17:07 | 61.03576 | -0.14269 | 35016 ft | 495 kts | 121° |
| 2026-05-04 17:08 | 60.98453 | 0.04075 | 35009 ft | 487 kts | 133° |
| 2026-05-04 17:09 | 60.94219 | 0.14997 | 35012 ft | 487 kts | 133° |
| 2026-05-04 17:09 | 60.90012 | 0.25830 | 35006 ft | 487 kts | 133° |
| 2026-05-04 17:10 | 60.79428 | 0.52867 | 35004 ft | 486 kts | 133° |
| 2026-05-04 17:11 | 60.75892 | 0.61836 | 35008 ft | 486 kts | 133° |
| 2026-05-04 17:12 | 60.69509 | 0.77916 | 35005 ft | 486 kts | 134° |
| 2026-05-04 17:13 | 60.58834 | 1.04607 | 34997 ft | 485 kts | 134° |
| 2026-05-04 17:14 | 60.50287 | 1.25731 | 34992 ft | 484 kts | 134° |
| 2026-05-04 17:15 | 60.43864 | 1.41470 | 34995 ft | 484 kts | 134° |
| 2026-05-04 17:16 | 60.35270 | 1.62380 | 35000 ft | 483 kts | 134° |
| 2026-05-04 17:17 | 60.26639 | 1.83180 | 34991 ft | 482 kts | 134° |
| 2026-05-04 17:18 | 60.18015 | 2.03801 | 34981 ft | 482 kts | 134° |
| 2026-05-04 17:19 | 60.09336 | 2.24340 | 34976 ft | 482 kts | 135° |
| 2026-05-04 17:20 | 60.00642 | 2.44754 | 34970 ft | 482 kts | 135° |
| 2026-05-04 17:20 | 59.94100 | 2.59987 | 34968 ft | 482 kts | 135° |
| 2026-05-04 17:21 | 59.85316 | 2.80266 | 34968 ft | 482 kts | 135° |
| 2026-05-04 17:22 | 59.80947 | 2.90287 | 34970 ft | 481 kts | 135° |
| 2026-05-04 17:23 | 59.72176 | 3.10288 | 34967 ft | 480 kts | 136° |
| 2026-05-04 17:24 | 59.65572 | 3.25243 | 34978 ft | 479 kts | 136° |
| 2026-05-04 17:25 | 59.56790 | 3.44975 | 34967 ft | 479 kts | 136° |
| 2026-05-04 17:26 | 59.47971 | 3.64595 | 34970 ft | 478 kts | 136° |
| 2026-05-04 17:27 | 59.36941 | 3.88962 | 34957 ft | 478 kts | 136° |
| 2026-05-04 17:28 | 59.28054 | 4.08371 | 34953 ft | 478 kts | 137° |
| 2026-05-04 17:29 | 59.14721 | 4.37192 | 34945 ft | 478 kts | 137° |
| 2026-05-04 17:31 | 59.03529 | 4.61094 | 34946 ft | 484 kts | 138° |
| 2026-05-04 17:32 | 58.92070 | 4.85308 | 34918 ft | 497 kts | 138° |
| 2026-05-04 17:33 | 58.82573 | 5.05217 | 34936 ft | 505 kts | 138° |
| 2026-05-04 17:34 | 58.73049 | 5.25021 | 34936 ft | 504 kts | 138° |
| 2026-05-04 17:35 | 58.61114 | 5.49564 | 34937 ft | 503 kts | 138° |
| 2026-05-04 17:36 | 58.56334 | 5.59305 | 34934 ft | 502 kts | 138° |
| 2026-05-04 17:36 | 58.51539 | 5.69043 | 34931 ft | 502 kts | 138° |
| 2026-05-04 17:37 | 58.46744 | 5.78746 | 34930 ft | 501 kts | 138° |
| 2026-05-04 17:37 | 58.41945 | 5.88413 | 34934 ft | 500 kts | 138° |
| 2026-05-04 17:38 | 58.37151 | 5.98037 | 34934 ft | 500 kts | 138° |
| 2026-05-04 17:38 | 58.32383 | 6.07577 | 34932 ft | 499 kts | 139° |
| 2026-05-04 17:39 | 58.25174 | 6.21884 | 34932 ft | 498 kts | 139° |
| 2026-05-04 17:39 | 58.20398 | 6.31332 | 34931 ft | 497 kts | 139° |
| 2026-05-04 17:40 | 58.15608 | 6.40780 | 34934 ft | 497 kts | 139° |
| 2026-05-04 17:40 | 58.10810 | 6.50198 | 34933 ft | 496 kts | 139° |
| 2026-05-04 17:41 | 58.06001 | 6.59568 | 34936 ft | 496 kts | 139° |
| 2026-05-04 17:41 | 58.01225 | 6.68847 | 34944 ft | 495 kts | 139° |
| 2026-05-04 17:42 | 57.96408 | 6.78167 | 34947 ft | 494 kts | 139° |
| 2026-05-04 17:42 | 57.91627 | 6.87379 | 34939 ft | 494 kts | 139° |
| 2026-05-04 17:43 | 57.86803 | 6.96644 | 34941 ft | 493 kts | 139° |
| 2026-05-04 17:43 | 57.82010 | 7.05836 | 34944 ft | 493 kts | 139° |
| 2026-05-04 17:44 | 57.77242 | 7.14930 | 34930 ft | 486 kts | 139° |
| 2026-05-04 17:44 | 57.72525 | 7.23911 | 34938 ft | 481 kts | 139° |
| 2026-05-04 17:45 | 57.67821 | 7.32790 | 34938 ft | 480 kts | 139° |
| 2026-05-04 17:45 | 57.63117 | 7.41636 | 34939 ft | 480 kts | 139° |
| 2026-05-04 17:46 | 57.58410 | 7.50467 | 34940 ft | 480 kts | 139° |
| 2026-05-04 17:46 | 57.53704 | 7.59270 | 34941 ft | 480 kts | 139° |
| 2026-05-04 17:47 | 57.48983 | 7.68061 | 34946 ft | 480 kts | 139° |
| 2026-05-04 17:47 | 57.44290 | 7.76755 | 34951 ft | 479 kts | 139° |
| 2026-05-04 17:48 | 57.39558 | 7.85488 | 34953 ft | 479 kts | 139° |
| 2026-05-04 17:48 | 57.34826 | 7.94197 | 34950 ft | 479 kts | 139° |
| 2026-05-04 17:49 | 57.30090 | 8.02875 | 34955 ft | 479 kts | 139° |
| 2026-05-04 17:49 | 57.25359 | 8.11612 | 34956 ft | 479 kts | 139° |
| 2026-05-04 17:50 | 57.20727 | 8.20355 | 34962 ft | 479 kts | 138° |
| 2026-05-04 17:50 | 57.16064 | 8.29150 | 34962 ft | 479 kts | 138° |
| 2026-05-04 17:51 | 57.11373 | 8.37890 | 34969 ft | 479 kts | 139° |
| 2026-05-04 17:51 | 57.06685 | 8.46536 | 34967 ft | 478 kts | 139° |
| 2026-05-04 17:52 | 57.01974 | 8.55228 | 34972 ft | 478 kts | 139° |
| 2026-05-04 17:52 | 56.97273 | 8.63875 | 34972 ft | 478 kts | 139° |
| 2026-05-04 17:53 | 56.92601 | 8.72447 | 34974 ft | 478 kts | 139° |
| 2026-05-04 17:53 | 56.87899 | 8.81043 | 34977 ft | 478 kts | 139° |
| 2026-05-04 17:54 | 56.83171 | 8.89635 | 34973 ft | 477 kts | 139° |
| 2026-05-04 17:54 | 56.78490 | 8.98129 | 34982 ft | 477 kts | 139° |
| 2026-05-04 17:55 | 56.73773 | 9.06664 | 34983 ft | 476 kts | 139° |
| 2026-05-04 17:55 | 56.69065 | 9.15130 | 34986 ft | 476 kts | 139° |
| 2026-05-04 17:56 | 56.64348 | 9.23575 | 34985 ft | 475 kts | 139° |
| 2026-05-04 17:56 | 56.59650 | 9.31965 | 34987 ft | 475 kts | 139° |
| 2026-05-04 17:57 | 56.54928 | 9.40363 | 34985 ft | 474 kts | 139° |
| 2026-05-04 17:57 | 56.50216 | 9.48722 | 34987 ft | 474 kts | 139° |
| 2026-05-04 17:58 | 56.45504 | 9.57049 | 34881 ft | 471 kts | 139° |
| 2026-05-04 17:58 | 56.43192 | 9.61119 | 34296 ft | 470 kts | 139° |
| 2026-05-04 17:58 | 56.40847 | 9.65239 | 33621 ft | 470 kts | 139° |
| 2026-05-04 17:59 | 56.38502 | 9.69352 | 32861 ft | 470 kts | 139° |
| 2026-05-04 17:59 | 56.36159 | 9.73469 | 32088 ft | 471 kts | 138° |
| 2026-05-04 17:59 | 56.32380 | 9.83235 | 30523 ft | 479 kts | 123° |
| 2026-05-04 18:00 | 56.30665 | 9.88403 | 29760 ft | 480 kts | 123° |
| 2026-05-04 18:00 | 56.28956 | 9.93571 | 29134 ft | 480 kts | 123° |
| 2026-05-04 18:00 | 56.27251 | 9.98721 | 28554 ft | 478 kts | 123° |
| 2026-05-04 18:00 | 56.25552 | 10.03836 | 28005 ft | 474 kts | 123° |
| 2026-05-04 18:01 | 56.23863 | 10.08910 | 27475 ft | 471 kts | 123° |
| 2026-05-04 18:01 | 56.22188 | 10.13931 | 26921 ft | 465 kts | 123° |
| 2026-05-04 18:01 | 56.20528 | 10.18885 | 26326 ft | 460 kts | 123° |
| 2026-05-04 18:02 | 56.17785 | 10.27018 | 25340 ft | 454 kts | 123° |
| 2026-05-04 18:02 | 56.16155 | 10.31844 | 24757 ft | 450 kts | 123° |
| 2026-05-04 18:02 | 56.14538 | 10.36628 | 24197 ft | 447 kts | 123° |
| 2026-05-04 18:02 | 56.13064 | 10.41501 | 23643 ft | 445 kts | 113° |
| 2026-05-04 18:03 | 56.12238 | 10.46840 | 23027 ft | 443 kts | 102° |
| 2026-05-04 18:03 | 56.11634 | 10.52195 | 22406 ft | 441 kts | 102° |
| 2026-05-04 18:03 | 56.11036 | 10.57557 | 21830 ft | 438 kts | 102° |
| 2026-05-04 18:03 | 56.10443 | 10.62886 | 21291 ft | 434 kts | 102° |
| 2026-05-04 18:04 | 56.09853 | 10.68174 | 20766 ft | 432 kts | 102° |
| 2026-05-04 18:04 | 56.09265 | 10.73425 | 20263 ft | 429 kts | 102° |
| 2026-05-04 18:04 | 56.08087 | 10.83837 | 19296 ft | 424 kts | 102° |
| 2026-05-04 18:05 | 56.07500 | 10.88998 | 18817 ft | 421 kts | 102° |
| 2026-05-04 18:05 | 56.06915 | 10.94127 | 18331 ft | 418 kts | 102° |
| 2026-05-04 18:05 | 56.06335 | 10.99190 | 17789 ft | 416 kts | 102° |
| 2026-05-04 18:05 | 56.05751 | 11.04232 | 17239 ft | 413 kts | 103° |
| 2026-05-04 18:06 | 56.04586 | 11.14209 | 16143 ft | 406 kts | 103° |
| 2026-05-04 18:06 | 56.04008 | 11.19130 | 15608 ft | 403 kts | 103° |
| 2026-05-04 18:06 | 56.03442 | 11.23961 | 15138 ft | 400 kts | 103° |
| 2026-05-04 18:07 | 56.02870 | 11.28839 | 14765 ft | 401 kts | 103° |
| 2026-05-04 18:07 | 56.02302 | 11.33684 | 14401 ft | 394 kts | 103° |
| 2026-05-04 18:07 | 56.01742 | 11.38442 | 14032 ft | 387 kts | 103° |
| 2026-05-04 18:07 | 56.01188 | 11.43119 | 13670 ft | 381 kts | 103° |
| 2026-05-04 18:08 | 56.00640 | 11.47715 | 13266 ft | 375 kts | 103° |
| 2026-05-04 18:08 | 56.00098 | 11.52236 | 12866 ft | 369 kts | 103° |
| 2026-05-04 18:08 | 55.99562 | 11.56690 | 12471 ft | 365 kts | 103° |
| 2026-05-04 18:08 | 55.99029 | 11.61094 | 12089 ft | 362 kts | 103° |
| 2026-05-04 18:09 | 55.97968 | 11.69805 | 11469 ft | 357 kts | 103° |
| 2026-05-04 18:09 | 55.96913 | 11.78438 | 10972 ft | 354 kts | 103° |
| 2026-05-04 18:10 | 55.96390 | 11.82724 | 10723 ft | 353 kts | 103° |
| 2026-05-04 18:10 | 55.95874 | 11.86940 | 10480 ft | 351 kts | 103° |
| 2026-05-04 18:10 | 55.95346 | 11.91231 | 10232 ft | 346 kts | 103° |
| 2026-05-04 18:10 | 55.94833 | 11.95373 | 10034 ft | 337 kts | 103° |
| 2026-05-04 18:11 | 55.94341 | 11.99350 | 9842 ft | 329 kts | 103° |
| 2026-05-04 18:11 | 55.93854 | 12.03288 | 9633 ft | 321 kts | 103° |
| 2026-05-04 18:11 | 55.93377 | 12.07140 | 9413 ft | 314 kts | 103° |
| 2026-05-04 18:11 | 55.92908 | 12.10908 | 9099 ft | 309 kts | 103° |
| 2026-05-04 18:12 | 55.92441 | 12.14644 | 8801 ft | 307 kts | 103° |
| 2026-05-04 18:12 | 55.91972 | 12.18353 | 8480 ft | 305 kts | 103° |
| 2026-05-04 18:12 | 55.91508 | 12.22040 | 8183 ft | 303 kts | 103° |
| 2026-05-04 18:12 | 55.91053 | 12.25657 | 7870 ft | 301 kts | 103° |
| 2026-05-04 18:13 | 55.90589 | 12.29316 | 7556 ft | 300 kts | 103° |
| 2026-05-04 18:13 | 55.90129 | 12.32928 | 7265 ft | 298 kts | 103° |
| 2026-05-04 18:13 | 55.89218 | 12.40044 | 6742 ft | 287 kts | 103° |
| 2026-05-04 18:14 | 55.88780 | 12.43466 | 6496 ft | 280 kts | 103° |
| 2026-05-04 18:14 | 55.88350 | 12.46809 | 6248 ft | 274 kts | 103° |
| 2026-05-04 18:14 | 55.87927 | 12.50082 | 5990 ft | 268 kts | 104° |
| 2026-05-04 18:15 | 55.86785 | 12.56282 | 5468 ft | 261 kts | 110° |
| 2026-05-04 18:15 | 55.85578 | 12.62314 | 4961 ft | 255 kts | 110° |
| 2026-05-04 18:15 | 55.84985 | 12.65269 | 4706 ft | 252 kts | 110° |
| 2026-05-04 18:16 | 55.84399 | 12.68179 | 4440 ft | 248 kts | 110° |
| 2026-05-04 18:16 | 55.83814 | 12.71055 | 4181 ft | 245 kts | 110° |
| 2026-05-04 18:16 | 55.83107 | 12.73745 | 3995 ft | 237 kts | 128° |
| 2026-05-04 18:17 | 55.81002 | 12.77979 | 3616 ft | 224 kts | 135° |
| 2026-05-04 18:17 | 55.79931 | 12.79981 | 3345 ft | 223 kts | 135° |
| 2026-05-04 18:17 | 55.77607 | 12.83458 | 2998 ft | 216 kts | 168° |
| 2026-05-04 18:18 | 55.76123 | 12.83631 | 3016 ft | 214 kts | 187° |
| 2026-05-04 18:18 | 55.74670 | 12.83393 | 3036 ft | 203 kts | 190° |
| 2026-05-04 18:18 | 55.73276 | 12.83123 | 2772 ft | 199 kts | 190° |
| 2026-05-04 18:18 | 55.72008 | 12.82539 | 2565 ft | 180 kts | 220° |
| 2026-05-04 18:19 | 55.70601 | 12.79273 | 2177 ft | 167 kts | 221° |
| 2026-05-04 18:19 | 55.69721 | 12.77958 | 1946 ft | 164 kts | 226° |
| 2026-05-04 18:19 | 55.68886 | 12.76639 | 1735 ft | 162 kts | 226° |
| 2026-05-04 18:20 | 55.68047 | 12.75323 | 1511 ft | 160 kts | 225° |
| 2026-05-04 18:20 | 55.67213 | 12.74022 | 1293 ft | 159 kts | 225° |
| 2026-05-04 18:20 | 55.66398 | 12.72755 | 1070 ft | 152 kts | 225° |
| 2026-05-04 18:20 | 55.65641 | 12.71580 | 885 ft | 140 kts | 226° |
| 2026-05-04 18:21 | 55.64924 | 12.70465 | 684 ft | 136 kts | 225° |
| 2026-05-04 18:21 | 55.64210 | 12.69355 | 505 ft | 137 kts | 225° |
| 2026-05-04 18:21 | 55.63496 | 12.68246 | 327 ft | 135 kts | 225° |
| 2026-05-04 18:21 | 55.62794 | 12.67156 | 141 ft | 135 kts | 225° |
| 2026-05-04 18:22 | 55.62100 | 12.66072 | 16 ft | 121 kts | 221° |
| 2026-05-04 18:22 | 55.61597 | 12.65295 | 16 ft | 74 kts | 221° |
| 2026-05-04 18:22 | 55.61317 | 12.64838 | 18 ft | 43 kts | 231° |
| 2026-05-04 18:22 | 55.61220 | 12.64442 | 19 ft | 30 kts | 251° |
| 2026-05-04 18:23 | 55.61194 | 12.64154 | 19 ft | 20 kts | 304° |
| 2026-05-04 18:23 | 55.61321 | 12.64162 | 17 ft | 21 kts | 32° |
| 2026-05-04 18:23 | 55.61450 | 12.64307 | 18 ft | 23 kts | 33° |
| 2026-05-04 18:23 | 55.61592 | 12.64472 | 17 ft | 25 kts | 33° |
| 2026-05-04 18:24 | 55.61717 | 12.64617 | 18 ft | 22 kts | 33° |
| 2026-05-04 18:24 | 55.61846 | 12.64766 | 17 ft | 22 kts | 34° |
| 2026-05-04 18:24 | 55.61957 | 12.64892 | 19 ft | 13 kts | 33° |
| 2026-05-04 18:24 | 55.62014 | 12.64957 | 20 ft | 10 kts | 32° |
| 2026-05-04 18:25 | 55.62048 | 12.64997 | 19 ft | 4 kts | 33° |
| 2026-05-04 18:25 | 55.62073 | 12.65026 | 20 ft | 4 kts | 33° |
| 2026-05-04 18:25 | 55.62091 | 12.65047 | 18 ft | 3 kts | 33° |
| 2026-05-04 18:25 | 55.62117 | 12.65076 | 19 ft | 6 kts | 33° |
| 2026-05-04 18:26 | 55.62164 | 12.65131 | 17 ft | 11 kts | 33° |
| 2026-05-04 18:26 | 55.62238 | 12.65161 | 18 ft | 13 kts | 328° |
| 2026-05-04 18:26 | 55.62295 | 12.65021 | 17 ft | 15 kts | 303° |
| 2026-05-04 18:26 | 55.62358 | 12.64849 | 17 ft | 18 kts | 303° |
| 2026-05-04 18:27 | 55.62418 | 12.64693 | 17 ft | 13 kts | 316° |
| 2026-05-04 18:27 | 55.62511 | 12.64655 | 19 ft | 15 kts | 354° |
| 2026-05-04 18:27 | 55.62579 | 12.64653 | 17 ft | 9 kts | 1° |
| 2026-05-04 18:27 | 55.62619 | 12.64660 | 17 ft | 4 kts | 7° |
| 2026-05-04 18:28 | 55.62639 | 12.64617 | 17 ft | 6 kts | 281° |
| 2026-05-04 18:28 | 55.62644 | 12.64569 | 17 ft | 2 kts | 281° |
| 2026-05-04 18:28 | 55.62645 | 12.64558 | 17 ft | 0 kts | 281° |